Time;durP1;ratioP1;P1;durP2;ratioP2;P2;SDS_P1;SDS_P2;PMS_P1;PMS_P2;Temp;Humidity;BMP_temperature;BMP_pressure;BME280_temperature;BME280_humidity;BME280_pressure;Samples;Min_cycle;Max_cycle;Signal;HPM_P1;HPM_P2
2021/07/19 00:00:18;;;;;;;10.45;6.43;;;17.60;99.90;;;;;;12521574;28;20106;-83
2021/07/19 00:06:20;;;;;;;10.43;6.18;;;17.40;99.90;;;;;;12518855;28;20044;-83
2021/07/19 00:12:23;;;;;;;10.80;6.25;;;17.50;99.90;;;;;;12521826;28;20045;-84
2021/07/19 00:18:24;;;;;;;11.38;5.93;;;17.40;99.90;;;;;;12523642;28;20045;-84
2021/07/19 00:24:26;;;;;;;10.50;5.65;;;17.30;99.90;;;;;;12520965;28;20094;-84
2021/07/19 00:30:28;;;;;;;11.07;6.07;;;17.30;99.90;;;;;;12514162;28;20078;-84
2021/07/19 00:36:30;;;;;;;10.10;6.32;;;17.20;99.90;;;;;;12556229;28;20045;-83
2021/07/19 00:42:32;;;;;;;13.90;6.20;;;17.20;99.90;;;;;;12525927;28;20078;-83
2021/07/19 00:48:34;;;;;;;9.85;6.13;;;17.20;99.90;;;;;;12512037;28;20079;-83
2021/07/19 00:54:38;;;;;;;10.88;5.75;;;17.20;99.90;;;;;;12511015;28;20049;-83
2021/07/19 01:00:46;;;;;;;8.60;5.38;;;17.20;99.90;;;;;;12510169;28;20090;-83
2021/07/19 01:06:51;;;;;;;10.45;5.70;;;17.00;99.90;;;;;;12514365;28;20049;-83
2021/07/19 01:12:57;;;;;;;9.57;5.97;;;17.00;99.90;;;;;;12511399;28;20722;-83
2021/07/19 01:18:59;;;;;;;8.32;5.35;;;17.00;99.90;;;;;;12513443;28;20053;-83
2021/07/19 01:25:08;;;;;;;13.93;5.88;;;16.90;99.90;;;;;;12512703;28;20555;-83
2021/07/19 01:31:32;;;;;;;11.13;6.10;;;16.70;99.90;;;;;;12504650;28;20128;-83
2021/07/19 01:37:36;;;;;;;10.93;5.90;;;16.70;99.90;;;;;;12515983;28;20057;-83
2021/07/19 01:43:39;;;;;;;12.25;7.00;;;16.60;99.90;;;;;;12524358;28;20045;-83
2021/07/19 01:49:42;;;;;;;11.60;6.18;;;16.70;99.90;;;;;;12523258;28;20102;-83
2021/07/19 01:55:44;;;;;;;12.95;6.90;;;16.70;99.90;;;;;;12518065;28;20056;-83
2021/07/19 02:01:47;;;;;;;10.60;5.95;;;16.60;99.90;;;;;;12521923;28;20504;-83
2021/07/19 02:07:53;;;;;;;10.47;6.20;;;16.50;99.90;;;;;;12518196;28;20781;-83
2021/07/19 02:13:56;;;;;;;12.93;6.70;;;16.50;99.90;;;;;;12522902;28;20037;-83
2021/07/19 02:19:59;;;;;;;10.45;6.47;;;16.50;99.90;;;;;;12528125;28;20071;-83
2021/07/19 02:26:02;;;;;;;13.05;6.38;;;16.60;99.90;;;;;;12516984;28;20135;-83
2021/07/19 02:32:04;;;;;;;11.13;6.27;;;16.70;99.90;;;;;;12521544;28;20060;-83
2021/07/19 02:38:10;;;;;;;12.23;6.13;;;16.80;99.90;;;;;;12525593;28;20106;-83
2021/07/19 02:44:13;;;;;;;10.95;6.25;;;16.80;99.90;;;;;;12516705;28;20041;-83
2021/07/19 02:50:18;;;;;;;13.48;6.40;;;16.80;99.90;;;;;;12520141;28;20049;-83
2021/07/19 02:56:22;;;;;;;11.52;6.47;;;16.80;99.90;;;;;;12514371;28;20057;-84
2021/07/19 03:02:25;;;;;;;9.33;6.00;;;16.80;99.90;;;;;;12516328;28;20102;-83
2021/07/19 03:08:33;;;;;;;12.07;6.93;;;16.80;99.90;;;;;;12519068;28;20091;-84
2021/07/19 03:14:36;;;;;;;10.43;6.72;;;16.70;99.90;;;;;;12519558;28;20044;-85
2021/07/19 03:20:43;;;;;;;10.50;6.87;;;16.70;99.90;;;;;;12536555;28;20048;-84
2021/07/19 03:26:45;;;;;;;11.93;7.03;;;16.70;99.90;;;;;;12522343;28;20049;-84
2021/07/19 03:32:49;;;;;;;11.98;7.32;;;16.60;99.90;;;;;;12521651;28;20127;-84
2021/07/19 03:38:52;;;;;;;14.55;7.20;;;16.80;99.90;;;;;;12520890;28;20109;-84
2021/07/19 03:44:54;;;;;;;13.18;7.53;;;16.80;99.90;;;;;;12526846;28;20102;-84
2021/07/19 03:50:56;;;;;;;17.08;7.63;;;16.80;99.90;;;;;;12519619;28;20075;-84
2021/07/19 03:57:00;;;;;;;11.80;7.22;;;16.70;99.90;;;;;;12519975;28;20098;-84
2021/07/19 04:04:16;;;;;;;14.23;7.45;;;16.60;99.90;;;;;;12519789;28;20049;-84
2021/07/19 04:09:40;;;;;;;13.93;7.15;;;16.50;99.90;;;;;;12506405;28;20048;-84
2021/07/19 04:15:46;;;;;;;12.88;5.90;;;16.50;99.90;;;;;;12518527;28;20068;-83
2021/07/19 04:21:48;;;;;;;13.15;6.07;;;16.40;99.90;;;;;;12516862;28;20455;-84
2021/07/19 04:27:51;;;;;;;15.98;6.28;;;16.30;99.90;;;;;;12521789;28;20037;-83
2021/07/19 04:33:53;;;;;;;13.88;5.82;;;16.30;99.90;;;;;;12515002;28;20041;-84
2021/07/19 04:39:54;;;;;;;10.52;4.93;;;16.30;99.90;;;;;;12519903;28;20053;-84
2021/07/19 04:45:56;;;;;;;12.02;5.78;;;16.30;99.90;;;;;;12564860;28;20702;-84
2021/07/19 04:51:58;;;;;;;12.45;5.35;;;16.30;99.90;;;;;;12524430;28;20098;-83
2021/07/19 04:58:01;;;;;;;13.73;6.03;;;16.30;99.90;;;;;;12521817;28;20461;-83
2021/07/19 05:04:05;;;;;;;14.18;6.03;;;16.40;99.90;;;;;;12510921;28;20068;-83
2021/07/19 05:10:09;;;;;;;14.10;6.47;;;16.30;99.90;;;;;;12516220;28;20048;-83
2021/07/19 05:16:11;;;;;;;10.50;5.67;;;16.40;99.90;;;;;;12519518;28;20144;-83
2021/07/19 05:22:17;;;;;;;14.23;5.50;;;16.40;99.90;;;;;;12522393;28;20406;-83
2021/07/19 05:28:19;;;;;;;15.48;5.53;;;16.50;99.90;;;;;;12522275;28;20106;-83
2021/07/19 05:34:21;;;;;;;13.43;5.25;;;16.50;99.90;;;;;;12522971;28;20037;-83
2021/07/19 05:40:23;;;;;;;9.43;5.03;;;16.60;99.90;;;;;;12521124;28;20045;-84
2021/07/19 05:46:24;;;;;;;10.57;4.72;;;16.60;99.90;;;;;;12529435;28;20090;-84
2021/07/19 05:52:26;;;;;;;10.55;4.35;;;16.60;99.90;;;;;;12527286;28;20544;-84
2021/07/19 05:58:28;;;;;;;9.60;3.85;;;16.50;99.90;;;;;;12530562;28;20084;-84
2021/07/19 06:04:30;;;;;;;8.75;4.18;;;16.60;99.90;;;;;;12522853;28;20397;-84
2021/07/19 06:10:32;;;;;;;15.52;4.35;;;16.70;99.90;;;;;;12524056;28;20526;-84
2021/07/19 06:16:34;;;;;;;9.50;4.13;;;16.70;99.90;;;;;;12528677;28;20041;-84
2021/07/19 06:22:36;;;;;;;10.75;3.88;;;16.90;99.90;;;;;;12525196;28;20044;-84
2021/07/19 06:28:39;;;;;;;8.15;3.67;;;16.80;99.90;;;;;;12514422;28;20106;-84
2021/07/19 06:34:41;;;;;;;11.98;4.28;;;16.90;99.90;;;;;;12511568;28;20053;-84
2021/07/19 06:40:43;;;;;;;10.88;4.00;;;17.00;99.90;;;;;;12518151;28;20048;-85
2021/07/19 06:46:45;;;;;;;9.55;3.70;;;17.20;99.90;;;;;;12519390;28;20053;-83
2021/07/19 06:52:46;;;;;;;11.95;3.97;;;17.30;99.90;;;;;;12524213;28;20049;-84
2021/07/19 06:58:48;;;;;;;9.02;3.47;;;17.30;99.90;;;;;;12524586;28;20729;-83
2021/07/19 07:04:50;;;;;;;9.35;3.40;;;17.50;99.90;;;;;;12522969;28;20045;-83
2021/07/19 07:10:52;;;;;;;10.10;3.80;;;17.40;99.90;;;;;;12516057;28;20045;-85
2021/07/19 07:16:54;;;;;;;9.07;3.85;;;17.50;99.90;;;;;;12524027;28;20045;-84
2021/07/19 07:22:56;;;;;;;7.60;3.50;;;17.50;99.90;;;;;;12520242;28;20056;-84
2021/07/19 07:29:03;;;;;;;8.38;3.45;;;17.60;99.90;;;;;;12516096;28;20053;-84
2021/07/19 07:35:05;;;;;;;10.25;4.07;;;17.70;99.90;;;;;;12521635;28;20061;-83
2021/07/19 07:41:08;;;;;;;14.73;3.67;;;17.90;99.90;;;;;;12510486;28;20052;-84
2021/07/19 07:47:10;;;;;;;10.82;3.50;;;17.90;99.90;;;;;;12523070;28;20053;-85
2021/07/19 07:53:12;;;;;;;11.80;3.72;;;17.80;99.90;;;;;;12514224;28;20071;-83
2021/07/19 07:59:14;;;;;;;5.97;3.33;;;17.70;99.90;;;;;;12521354;28;20044;-84
2021/07/19 08:05:16;;;;;;;10.68;3.97;;;17.70;99.90;;;;;;12520780;28;20057;-84
2021/07/19 08:11:18;;;;;;;9.27;3.63;;;17.70;99.90;;;;;;12517739;28;20094;-83
2021/07/19 08:17:20;;;;;;;9.85;3.65;;;17.70;99.90;;;;;;12516653;28;20048;-85
2021/07/19 08:23:22;;;;;;;9.77;3.75;;;17.80;99.90;;;;;;12522532;28;20087;-84
2021/07/19 08:29:23;;;;;;;8.35;3.67;;;17.90;99.90;;;;;;12521224;28;20370;-84
2021/07/19 08:35:25;;;;;;;9.13;3.90;;;18.00;99.90;;;;;;12516212;28;20045;-85
2021/07/19 08:41:27;;;;;;;8.63;3.38;;;18.30;99.90;;;;;;12522455;28;20049;-85
2021/07/19 08:47:29;;;;;;;6.15;2.95;;;18.30;99.90;;;;;;12529485;28;20052;-84
2021/07/19 08:53:33;;;;;;;16.52;3.70;;;18.50;99.90;;;;;;12519203;28;20765;-85
2021/07/19 08:59:36;;;;;;;7.88;3.67;;;18.70;99.90;;;;;;12569959;28;20099;-85
2021/07/19 09:05:38;;;;;;;13.35;3.80;;;18.40;99.90;;;;;;12523934;28;20090;-84
2021/07/19 09:11:49;;;;;;;17.55;3.75;;;18.60;99.90;;;;;;12522247;28;20049;-84
2021/07/19 09:17:56;;;;;;;17.33;4.32;;;18.60;99.90;;;;;;12522941;28;20478;-84
2021/07/19 09:24:06;;;;;;;9.98;4.05;;;18.90;99.90;;;;;;12523756;28;20064;-84
2021/07/19 09:30:16;;;;;;;8.93;3.65;;;19.20;99.90;;;;;;12518207;28;20040;-84
2021/07/19 09:36:24;;;;;;;9.45;4.45;;;18.80;99.90;;;;;;12522829;28;20057;-84
2021/07/19 09:42:26;;;;;;;8.23;4.20;;;18.60;99.90;;;;;;12521632;28;21775;-84
2021/07/19 09:48:28;;;;;;;10.93;4.22;;;19.10;99.90;;;;;;12513271;28;20772;-84
2021/07/19 09:54:34;;;;;;;10.90;4.60;;;19.10;99.90;;;;;;12521122;28;20144;-85
2021/07/19 10:00:47;;;;;;;12.50;4.82;;;19.40;99.90;;;;;;12518746;28;20052;-84
2021/07/19 10:06:51;;;;;;;11.73;4.97;;;19.80;99.90;;;;;;12520675;28;20092;-84
2021/07/19 10:13:00;;;;;;;27.38;6.18;;;19.40;99.90;;;;;;12502561;28;20080;-84
2021/07/19 10:19:04;;;;;;;10.18;4.55;;;19.10;99.90;;;;;;12525525;28;20504;-85
2021/07/19 10:25:07;;;;;;;11.57;5.32;;;19.50;99.90;;;;;;12520543;28;20070;-84
2021/07/19 10:31:12;;;;;;;17.42;4.95;;;19.60;99.90;;;;;;12508312;28;20041;-84
2021/07/19 10:37:25;;;;;;;13.10;6.70;;;19.40;99.90;;;;;;12517915;28;20522;-84
2021/07/19 10:43:30;;;;;;;10.50;4.87;;;19.40;99.90;;;;;;12518371;28;20386;-83
2021/07/19 10:49:34;;;;;;;11.20;5.78;;;19.40;99.90;;;;;;12520211;28;20045;-84
2021/07/19 10:55:36;;;;;;;11.57;6.13;;;19.80;99.90;;;;;;12518584;28;20041;-84
2021/07/19 11:01:38;;;;;;;11.10;5.63;;;19.90;99.90;;;;;;12521620;28;20041;-85
2021/07/19 11:07:44;;;;;;;11.55;5.97;;;19.60;99.90;;;;;;12517962;28;20060;-85
2021/07/19 11:13:54;;;;;;;9.98;5.88;;;19.50;99.90;;;;;;12520518;28;20141;-84
2021/07/19 11:19:58;;;;;;;9.93;6.38;;;19.20;99.90;;;;;;12510692;28;20142;-84
2021/07/19 11:26:02;;;;;;;8.82;5.38;;;19.40;99.90;;;;;;12517067;28;20041;-85
2021/07/19 11:32:18;;;;;;;12.68;5.57;;;19.40;99.90;;;;;;12527772;28;20041;-84
2021/07/19 11:38:19;;;;;;;11.63;5.80;;;19.10;99.90;;;;;;12520723;28;20052;-84
2021/07/19 11:44:43;;;;;;;12.82;5.50;;;19.10;99.90;;;;;;12513471;28;20045;-84
2021/07/19 11:50:45;;;;;;;8.70;5.25;;;19.10;99.90;;;;;;12503858;28;20516;-85
2021/07/19 11:56:52;;;;;;;10.38;5.72;;;19.10;99.90;;;;;;12518780;28;20094;-85
2021/07/19 12:03:03;;;;;;;12.05;6.03;;;19.20;99.90;;;;;;12506643;28;20048;-85
2021/07/19 12:09:07;;;;;;;13.70;5.60;;;19.00;99.90;;;;;;12507691;28;20095;-85
2021/07/19 12:15:14;;;;;;;12.45;5.50;;;19.10;99.90;;;;;;12518709;28;20053;-85
2021/07/19 12:21:19;;;;;;;11.13;5.72;;;19.10;99.90;;;;;;12531370;28;20052;-85
2021/07/19 12:27:22;;;;;;;;;;;19.00;99.90;;;;;;12533209;28;20052;-85
2021/07/19 12:33:23;;;;;;;11.48;5.57;;;19.20;99.90;;;;;;12518646;28;19924;-84
2021/07/19 12:39:34;;;;;;;13.25;5.80;;;19.20;99.90;;;;;;12513728;28;20130;-85
2021/07/19 12:45:37;;;;;;;11.45;6.10;;;19.10;99.90;;;;;;12520634;28;20423;-84
2021/07/19 12:51:41;;;;;;;10.93;5.78;;;18.90;99.90;;;;;;12511481;28;20049;-84
2021/07/19 12:57:50;;;;;;;12.77;6.00;;;18.90;99.90;;;;;;12543262;28;20029;-85
2021/07/19 13:04:06;;;;;;;10.25;5.65;;;18.80;99.90;;;;;;12531486;28;20064;-83
2021/07/19 13:10:11;;;;;;;10.77;5.88;;;18.90;99.90;;;;;;12508811;28;20060;-84
2021/07/19 13:16:20;;;;;;;11.98;6.00;;;18.90;99.90;;;;;;12511380;28;21141;-84
2021/07/19 13:22:27;;;;;;;10.82;6.40;;;19.00;99.90;;;;;;12527307;28;20086;-83
2021/07/19 13:28:29;;;;;;;10.32;6.10;;;18.90;99.90;;;;;;12510495;28;20053;-84
2021/07/19 13:34:31;;;;;;;10.10;6.18;;;19.00;99.90;;;;;;12522026;28;20041;-84
2021/07/19 13:40:47;;;;;;;12.02;5.68;;;19.20;99.90;;;;;;12525355;28;20075;-84
2021/07/19 13:46:49;;;;;;;12.20;6.28;;;19.60;99.90;;;;;;12522083;28;20404;-84
2021/07/19 13:52:50;;;;;;;13.80;6.32;;;19.80;99.90;;;;;;12526122;28;20041;-84
2021/07/19 13:58:52;;;;;;;13.20;6.10;;;19.80;99.90;;;;;;12520254;28;20455;-84
2021/07/19 14:04:54;;;;;;;12.52;5.93;;;19.60;99.90;;;;;;12526029;28;20045;-84
2021/07/19 14:10:56;;;;;;;10.70;5.88;;;19.60;99.90;;;;;;12527995;28;20105;-84
2021/07/19 14:16:58;;;;;;;12.27;6.55;;;19.60;99.90;;;;;;12522612;28;20060;-84
2021/07/19 14:23:01;;;;;;;11.15;6.55;;;19.50;99.90;;;;;;12525051;28;20052;-84
2021/07/19 14:29:06;;;;;;;13.10;7.25;;;19.40;99.90;;;;;;12527998;28;20048;-84
2021/07/19 14:35:11;;;;;;;11.48;6.88;;;19.20;99.90;;;;;;12529050;28;20121;-85
2021/07/19 14:41:13;;;;;;;15.48;7.18;;;19.20;99.90;;;;;;12527671;28;20045;-84
2021/07/19 14:47:15;;;;;;;14.27;8.00;;;19.20;99.90;;;;;;12509225;28;20052;-84
2021/07/19 14:53:23;;;;;;;11.73;7.40;;;19.00;99.90;;;;;;12525305;28;20041;-84
2021/07/19 14:59:25;;;;;;;14.10;7.35;;;19.00;99.90;;;;;;12518517;28;20371;-85
2021/07/19 15:05:27;;;;;;;10.98;6.55;;;18.90;99.90;;;;;;12508848;28;20562;-85
2021/07/19 15:11:29;;;;;;;15.48;7.20;;;19.00;99.90;;;;;;12518806;28;20135;-84
2021/07/19 15:17:31;;;;;;;12.77;7.03;;;18.90;99.90;;;;;;12520406;28;20880;-84
2021/07/19 15:23:33;;;;;;;11.23;6.53;;;18.70;99.90;;;;;;12519895;28;20490;-84
2021/07/19 15:29:35;;;;;;;15.80;6.90;;;18.70;99.90;;;;;;12518981;28;20117;-84
2021/07/19 15:35:37;;;;;;;19.48;6.90;;;18.70;99.90;;;;;;12520724;28;20106;-84
2021/07/19 15:41:38;;;;;;;17.58;6.95;;;18.70;99.90;;;;;;12517035;28;20048;-84
2021/07/19 15:47:41;;;;;;;10.07;6.53;;;18.70;99.90;;;;;;12516190;28;20600;-83
2021/07/19 15:53:43;;;;;;;12.93;6.32;;;18.60;99.90;;;;;;12513715;28;20094;-84
2021/07/19 15:59:44;;;;;;;25.27;6.65;;;18.70;99.90;;;;;;12518191;28;20053;-84
2021/07/19 16:05:48;;;;;;;17.52;6.35;;;18.60;99.90;;;;;;12514861;28;20064;-83
2021/07/19 16:11:50;;;;;;;14.80;6.82;;;18.50;99.90;;;;;;12517686;28;20045;-84
2021/07/19 16:17:51;;;;;;;11.77;5.70;;;18.50;99.90;;;;;;12517965;28;20037;-83
2021/07/19 16:23:53;;;;;;;11.35;5.93;;;18.50;99.90;;;;;;12518949;28;20567;-84
2021/07/19 16:29:55;;;;;;;13.15;5.80;;;18.40;99.90;;;;;;12521847;28;20768;-84
2021/07/19 16:35:57;;;;;;;14.43;6.50;;;18.40;99.90;;;;;;12516599;28;20493;-84
2021/07/19 16:42:02;;;;;;;11.20;5.45;;;18.10;99.90;;;;;;12514646;28;20052;-84
2021/07/19 16:48:04;;;;;;;11.35;5.68;;;17.90;99.90;;;;;;12537819;28;20041;-85
2021/07/19 16:54:06;;;;;;;13.73;5.60;;;17.80;99.90;;;;;;12554512;28;20045;-85
2021/07/19 17:00:09;;;;;;;12.35;5.25;;;17.70;99.90;;;;;;12510701;28;20511;-85
2021/07/19 17:06:11;;;;;;;8.70;5.30;;;17.60;99.90;;;;;;12514762;28;20049;-85
2021/07/19 17:12:13;;;;;;;12.60;6.03;;;17.50;99.90;;;;;;12524732;28;20102;-83
2021/07/19 17:18:15;;;;;;;13.40;6.38;;;17.60;99.90;;;;;;12509797;28;20055;-84
2021/07/19 17:24:17;;;;;;;12.88;6.22;;;17.60;99.90;;;;;;12521117;28;20057;-84
2021/07/19 17:30:19;;;;;;;14.77;6.07;;;17.70;99.90;;;;;;12512393;28;20051;-84
2021/07/19 17:36:21;;;;;;;12.73;5.88;;;18.50;99.90;;;;;;12522699;28;20095;-84
2021/07/19 17:42:23;;;;;;;12.32;5.80;;;19.40;99.90;;;;;;12518158;28;20056;-84
2021/07/19 17:48:26;;;;;;;9.55;5.53;;;20.00;99.90;;;;;;12514726;28;20490;-85
2021/07/19 17:54:28;;;;;;;12.55;5.35;;;20.40;99.90;;;;;;12536815;28;20052;-84
2021/07/19 18:00:30;;;;;;;12.38;5.60;;;20.60;99.90;;;;;;12522799;28;20400;-85
2021/07/19 18:06:32;;;;;;;13.68;5.55;;;20.90;99.90;;;;;;12521191;28;20136;-84
2021/07/19 18:12:34;;;;;;;13.30;5.32;;;20.90;99.90;;;;;;12520380;28;20048;-84
2021/07/19 18:18:36;;;;;;;10.18;5.18;;;20.60;99.90;;;;;;12523723;28;20487;-84
2021/07/19 18:30:46;;;;;;;8.18;5.07;;;19.50;99.90;;;;;;12519493;28;20136;-84
2021/07/19 18:36:48;;;;;;;13.80;5.55;;;19.20;99.90;;;;;;12518623;28;20707;-84
2021/07/19 18:42:50;;;;;;;13.82;5.28;;;18.80;99.90;;;;;;12519954;28;20049;-84
2021/07/19 18:48:52;;;;;;;11.50;5.30;;;18.60;99.90;;;;;;12525000;28;20105;-84
2021/07/19 18:54:54;;;;;;;8.68;5.45;;;18.50;99.90;;;;;;12514328;28;20376;-84
2021/07/19 19:00:57;;;;;;;10.57;5.47;;;18.30;99.90;;;;;;12521070;28;20045;-83
2021/07/19 19:07:00;;;;;;;11.77;5.70;;;18.10;99.90;;;;;;12522313;28;20049;-84
2021/07/19 19:13:05;;;;;;;13.57;5.97;;;18.00;99.90;;;;;;12524006;28;20049;-84
2021/07/19 19:19:08;;;;;;;9.77;5.40;;;17.80;99.90;;;;;;12526333;28;20509;-84
2021/07/19 19:25:10;;;;;;;11.70;5.90;;;17.60;99.90;;;;;;12523838;28;20071;-83
2021/07/19 19:31:17;;;;;;;18.48;5.78;;;17.30;99.90;;;;;;12522058;28;20109;-84
2021/07/19 19:37:18;;;;;;;10.20;5.43;;;17.00;99.90;;;;;;12520641;28;20306;-84
2021/07/19 19:43:20;;;;;;;12.10;5.18;;;16.90;99.90;;;;;;12524290;28;20511;-83
2021/07/19 19:49:22;;;;;;;10.43;5.55;;;16.80;99.90;;;;;;12523737;28;20068;-83
2021/07/19 19:55:24;;;;;;;10.63;5.70;;;16.70;99.90;;;;;;12516011;28;20044;-83
2021/07/19 20:01:31;;;;;;;9.95;6.03;;;16.40;99.90;;;;;;12519940;28;20036;-83
2021/07/19 20:07:33;;;;;;;11.15;6.18;;;16.20;99.90;;;;;;12518862;28;20052;-84
2021/07/19 20:13:35;;;;;;;12.27;6.18;;;16.20;99.90;;;;;;12520091;28;20052;-84
2021/07/19 20:19:37;;;;;;;9.52;6.40;;;16.20;99.90;;;;;;12509896;28;20061;-84
2021/07/19 20:25:39;;;;;;;8.93;5.13;;;16.00;99.90;;;;;;12516917;28;20327;-83
2021/07/19 20:31:41;;;;;;;10.48;6.13;;;15.90;99.90;;;;;;12517532;28;20091;-84
2021/07/19 20:37:43;;;;;;;11.15;6.28;;;15.70;99.90;;;;;;12510643;28;20417;-83
2021/07/19 20:43:45;;;;;;;11.88;6.40;;;15.50;99.90;;;;;;12523768;28;20041;-83
2021/07/19 20:49:47;;;;;;;11.73;5.40;;;15.50;99.90;;;;;;12513988;28;20056;-84
2021/07/19 20:55:56;;;;;;;10.65;6.00;;;15.30;99.90;;;;;;12520248;28;20045;-83
2021/07/19 21:01:57;;;;;;;10.00;5.55;;;15.20;99.90;;;;;;12560016;28;20057;-83
2021/07/19 21:07:59;;;;;;;10.75;5.85;;;15.20;99.90;;;;;;12519102;28;20052;-83
2021/07/19 21:14:01;;;;;;;11.38;6.25;;;15.20;99.90;;;;;;12517083;28;20045;-83
2021/07/19 21:20:04;;;;;;;7.28;5.38;;;15.10;99.90;;;;;;12507077;28;20049;-83
2021/07/19 21:26:05;;;;;;;10.40;6.00;;;15.10;99.90;;;;;;12516724;28;20053;-83
2021/07/19 21:32:08;;;;;;;8.52;5.75;;;15.10;99.90;;;;;;12511248;28;20094;-83
2021/07/19 21:38:10;;;;;;;12.90;5.78;;;15.10;99.90;;;;;;12514014;28;20057;-83
2021/07/19 21:44:12;;;;;;;10.32;5.75;;;14.90;99.90;;;;;;12504199;28;20134;-82
2021/07/19 21:50:14;;;;;;;11.15;6.25;;;14.70;99.90;;;;;;12513867;28;20045;-83
2021/07/19 21:56:16;;;;;;;10.40;6.00;;;14.80;99.90;;;;;;12522351;28;20466;-83
2021/07/19 22:02:18;;;;;;;8.82;5.70;;;14.70;99.90;;;;;;12520598;28;20110;-83
2021/07/19 22:08:20;;;;;;;10.18;5.70;;;14.60;99.90;;;;;;12519242;28;20098;-83
2021/07/19 22:14:23;;;;;;;9.52;5.78;;;14.50;99.90;;;;;;12517635;28;20045;-82
2021/07/19 22:20:25;;;;;;;11.02;6.15;;;14.60;99.90;;;;;;12517762;28;20098;-83
2021/07/19 22:26:27;;;;;;;9.95;5.97;;;14.60;99.90;;;;;;12523480;28;20081;-83
2021/07/19 22:32:30;;;;;;;10.48;5.97;;;14.50;99.90;;;;;;12515944;28;20045;-82
2021/07/19 22:38:32;;;;;;;9.95;5.60;;;14.50;99.90;;;;;;12516587;28;20045;-83
2021/07/19 22:44:34;;;;;;;14.23;6.68;;;14.50;99.90;;;;;;12520345;28;20041;-83
2021/07/19 22:50:36;;;;;;;12.85;6.30;;;14.50;99.90;;;;;;12519237;28;20094;-83
2021/07/19 22:56:37;;;;;;;10.68;6.63;;;14.50;99.90;;;;;;12516034;28;20509;-83
2021/07/19 23:02:39;;;;;;;13.88;6.82;;;14.40;99.90;;;;;;12516262;28;20045;-83
2021/07/19 23:08:42;;;;;;;11.18;5.95;;;14.50;99.90;;;;;;12522255;28;20076;-83
2021/07/19 23:14:43;;;;;;;12.13;6.95;;;14.50;99.90;;;;;;12514860;28;20049;-82
2021/07/19 23:20:45;;;;;;;11.07;6.35;;;14.60;99.90;;;;;;12516798;28;20440;-83
2021/07/19 23:26:47;;;;;;;12.27;6.80;;;14.60;99.90;;;;;;12513251;28;20057;-83
2021/07/19 23:32:49;;;;;;;12.15;6.88;;;14.70;99.90;;;;;;12515022;28;20079;-83
2021/07/19 23:38:51;;;;;;;13.80;7.10;;;14.60;99.90;;;;;;12517498;28;20071;-83
2021/07/19 23:44:52;;;;;;;13.02;6.95;;;14.50;99.90;;;;;;12509395;28;20466;-83
2021/07/19 23:50:54;;;;;;;11.52;6.82;;;14.60;99.90;;;;;;12511686;28;20045;-83
2021/07/19 23:56:56;;;;;;;11.75;6.38;;;14.60;99.90;;;;;;12517888;28;20370;-83
